sensor_id;sensor_type;location;lat;lon;timestamp;P1;durP1;ratioP1;P2;durP2;ratioP2
14394;SDS011;7282;49.204;10.652;2024-02-21T00:00:22;17.57;;;6.77;;
14394;SDS011;7282;49.204;10.652;2024-02-21T00:02:49;11.97;;;6.67;;
14394;SDS011;7282;49.204;10.652;2024-02-21T00:05:15;15.13;;;5.90;;
14394;SDS011;7282;49.204;10.652;2024-02-21T00:07:42;9.33;;;5.67;;
14394;SDS011;7282;49.204;10.652;2024-02-21T00:10:09;10.57;;;5.57;;
14394;SDS011;7282;49.204;10.652;2024-02-21T00:12:35;14.10;;;5.73;;
14394;SDS011;7282;49.204;10.652;2024-02-21T00:15:02;11.27;;;5.50;;
14394;SDS011;7282;49.204;10.652;2024-02-21T00:17:29;13.13;;;5.40;;
14394;SDS011;7282;49.204;10.652;2024-02-21T00:19:56;10.40;;;5.67;;
14394;SDS011;7282;49.204;10.652;2024-02-21T00:22:22;12.50;;;6.30;;
14394;SDS011;7282;49.204;10.652;2024-02-21T00:24:49;13.80;;;6.27;;
14394;SDS011;7282;49.204;10.652;2024-02-21T00:27:16;10.47;;;6.13;;
14394;SDS011;7282;49.204;10.652;2024-02-21T00:29:43;13.77;;;6.33;;
14394;SDS011;7282;49.204;10.652;2024-02-21T00:32:09;13.80;;;5.93;;
14394;SDS011;7282;49.204;10.652;2024-02-21T00:34:36;9.50;;;5.50;;
14394;SDS011;7282;49.204;10.652;2024-02-21T00:37:03;11.37;;;5.80;;
14394;SDS011;7282;49.204;10.652;2024-02-21T00:39:29;13.43;;;6.23;;
14394;SDS011;7282;49.204;10.652;2024-02-21T00:41:56;15.83;;;6.50;;
14394;SDS011;7282;49.204;10.652;2024-02-21T00:44:28;13.90;;;5.97;;
14394;SDS011;7282;49.204;10.652;2024-02-21T00:46:51;13.30;;;6.03;;
14394;SDS011;7282;49.204;10.652;2024-02-21T00:49:18;10.77;;;6.10;;
14394;SDS011;7282;49.204;10.652;2024-02-21T00:51:45;14.10;;;6.03;;
14394;SDS011;7282;49.204;10.652;2024-02-21T00:54:12;13.83;;;6.17;;
14394;SDS011;7282;49.204;10.652;2024-02-21T00:56:38;12.63;;;6.27;;
14394;SDS011;7282;49.204;10.652;2024-02-21T00:59:06;11.80;;;6.20;;
14394;SDS011;7282;49.204;10.652;2024-02-21T01:01:37;13.93;;;6.20;;
14394;SDS011;7282;49.204;10.652;2024-02-21T01:04:01;10.30;;;5.40;;
14394;SDS011;7282;49.204;10.652;2024-02-21T01:06:28;15.73;;;6.80;;
14394;SDS011;7282;49.204;10.652;2024-02-21T01:08:54;11.10;;;5.60;;
14394;SDS011;7282;49.204;10.652;2024-02-21T01:11:21;10.57;;;5.93;;
14394;SDS011;7282;49.204;10.652;2024-02-21T01:13:48;12.17;;;6.20;;
14394;SDS011;7282;49.204;10.652;2024-02-21T01:16:14;11.03;;;6.60;;
14394;SDS011;7282;49.204;10.652;2024-02-21T01:18:41;8.67;;;5.50;;
14394;SDS011;7282;49.204;10.652;2024-02-21T01:21:08;11.63;;;5.90;;
14394;SDS011;7282;49.204;10.652;2024-02-21T01:23:36;12.80;;;5.63;;
14394;SDS011;7282;49.204;10.652;2024-02-21T01:26:03;13.00;;;5.67;;
14394;SDS011;7282;49.204;10.652;2024-02-21T01:28:30;14.77;;;6.23;;
14394;SDS011;7282;49.204;10.652;2024-02-21T01:30:57;9.47;;;5.57;;
14394;SDS011;7282;49.204;10.652;2024-02-21T01:33:24;11.10;;;5.43;;
14394;SDS011;7282;49.204;10.652;2024-02-21T01:35:50;10.30;;;5.67;;
14394;SDS011;7282;49.204;10.652;2024-02-21T01:38:17;9.77;;;6.00;;
14394;SDS011;7282;49.204;10.652;2024-02-21T01:40:44;14.47;;;5.70;;
14394;SDS011;7282;49.204;10.652;2024-02-21T01:43:17;10.83;;;5.67;;
14394;SDS011;7282;49.204;10.652;2024-02-21T01:45:45;15.83;;;6.27;;
14394;SDS011;7282;49.204;10.652;2024-02-21T01:48:12;10.63;;;5.20;;
14394;SDS011;7282;49.204;10.652;2024-02-21T01:50:39;10.93;;;5.33;;
14394;SDS011;7282;49.204;10.652;2024-02-21T01:53:06;12.43;;;5.53;;
14394;SDS011;7282;49.204;10.652;2024-02-21T01:55:33;8.07;;;5.07;;
14394;SDS011;7282;49.204;10.652;2024-02-21T01:58:00;8.50;;;5.43;;
14394;SDS011;7282;49.204;10.652;2024-02-21T02:00:27;8.17;;;4.70;;
14394;SDS011;7282;49.204;10.652;2024-02-21T02:02:54;9.73;;;5.70;;
14394;SDS011;7282;49.204;10.652;2024-02-21T02:05:21;8.70;;;5.20;;
14394;SDS011;7282;49.204;10.652;2024-02-21T02:07:48;14.20;;;5.80;;
14394;SDS011;7282;49.204;10.652;2024-02-21T02:10:15;16.43;;;5.73;;
14394;SDS011;7282;49.204;10.652;2024-02-21T02:12:41;10.73;;;4.87;;
14394;SDS011;7282;49.204;10.652;2024-02-21T02:15:08;10.80;;;5.57;;
14394;SDS011;7282;49.204;10.652;2024-02-21T02:17:35;9.13;;;5.07;;
14394;SDS011;7282;49.204;10.652;2024-02-21T02:20:02;11.33;;;5.47;;
14394;SDS011;7282;49.204;10.652;2024-02-21T02:22:30;9.73;;;5.40;;
14394;SDS011;7282;49.204;10.652;2024-02-21T02:24:58;11.57;;;5.03;;
14394;SDS011;7282;49.204;10.652;2024-02-21T02:27:25;10.17;;;5.03;;
14394;SDS011;7282;49.204;10.652;2024-02-21T02:29:51;8.13;;;4.93;;
14394;SDS011;7282;49.204;10.652;2024-02-21T02:32:18;10.17;;;5.20;;
14394;SDS011;7282;49.204;10.652;2024-02-21T02:34:45;8.77;;;5.20;;
14394;SDS011;7282;49.204;10.652;2024-02-21T02:37:12;11.40;;;4.97;;
14394;SDS011;7282;49.204;10.652;2024-02-21T02:39:38;11.33;;;5.27;;
14394;SDS011;7282;49.204;10.652;2024-02-21T02:42:05;12.30;;;5.77;;
14394;SDS011;7282;49.204;10.652;2024-02-21T02:44:32;11.93;;;4.97;;
14394;SDS011;7282;49.204;10.652;2024-02-21T02:46:58;10.07;;;5.10;;
14394;SDS011;7282;49.204;10.652;2024-02-21T02:49:25;13.43;;;5.13;;
14394;SDS011;7282;49.204;10.652;2024-02-21T02:51:52;9.83;;;4.90;;
14394;SDS011;7282;49.204;10.652;2024-02-21T02:54:18;11.13;;;5.63;;
14394;SDS011;7282;49.204;10.652;2024-02-21T02:56:45;9.27;;;5.20;;
14394;SDS011;7282;49.204;10.652;2024-02-21T02:59:12;8.53;;;4.70;;
14394;SDS011;7282;49.204;10.652;2024-02-21T03:01:39;15.00;;;5.83;;
14394;SDS011;7282;49.204;10.652;2024-02-21T03:04:06;9.00;;;4.80;;
14394;SDS011;7282;49.204;10.652;2024-02-21T03:06:32;12.63;;;6.17;;
14394;SDS011;7282;49.204;10.652;2024-02-21T03:08:59;9.27;;;5.00;;
14394;SDS011;7282;49.204;10.652;2024-02-21T03:11:26;10.80;;;5.00;;
14394;SDS011;7282;49.204;10.652;2024-02-21T03:13:55;10.53;;;5.07;;
14394;SDS011;7282;49.204;10.652;2024-02-21T03:16:22;13.00;;;5.20;;
14394;SDS011;7282;49.204;10.652;2024-02-21T03:18:49;12.03;;;5.47;;
14394;SDS011;7282;49.204;10.652;2024-02-21T03:21:16;12.50;;;5.47;;
14394;SDS011;7282;49.204;10.652;2024-02-21T03:23:42;8.63;;;5.20;;
14394;SDS011;7282;49.204;10.652;2024-02-21T03:26:09;9.40;;;4.60;;
14394;SDS011;7282;49.204;10.652;2024-02-21T03:28:36;8.93;;;5.33;;
14394;SDS011;7282;49.204;10.652;2024-02-21T03:31:03;11.47;;;5.30;;
14394;SDS011;7282;49.204;10.652;2024-02-21T03:33:30;9.37;;;5.53;;
14394;SDS011;7282;49.204;10.652;2024-02-21T03:35:56;9.20;;;4.53;;
14394;SDS011;7282;49.204;10.652;2024-02-21T03:38:23;11.97;;;5.20;;
14394;SDS011;7282;49.204;10.652;2024-02-21T03:40:50;15.57;;;5.33;;
14394;SDS011;7282;49.204;10.652;2024-02-21T03:43:16;12.47;;;5.20;;
14394;SDS011;7282;49.204;10.652;2024-02-21T03:45:43;7.53;;;4.40;;
14394;SDS011;7282;49.204;10.652;2024-02-21T03:48:10;11.87;;;5.17;;
14394;SDS011;7282;49.204;10.652;2024-02-21T03:50:36;13.60;;;5.50;;
14394;SDS011;7282;49.204;10.652;2024-02-21T03:53:03;8.10;;;4.90;;
14394;SDS011;7282;49.204;10.652;2024-02-21T03:55:30;10.20;;;5.30;;
14394;SDS011;7282;49.204;10.652;2024-02-21T03:57:56;12.03;;;4.90;;
14394;SDS011;7282;49.204;10.652;2024-02-21T04:00:23;8.90;;;5.00;;
14394;SDS011;7282;49.204;10.652;2024-02-21T04:02:50;10.20;;;5.50;;
14394;SDS011;7282;49.204;10.652;2024-02-21T04:05:16;12.17;;;5.10;;
14394;SDS011;7282;49.204;10.652;2024-02-21T04:07:43;10.57;;;4.87;;
14394;SDS011;7282;49.204;10.652;2024-02-21T04:10:10;9.03;;;4.97;;
14394;SDS011;7282;49.204;10.652;2024-02-21T04:12:37;14.80;;;5.30;;
14394;SDS011;7282;49.204;10.652;2024-02-21T04:15:04;10.70;;;5.27;;
14394;SDS011;7282;49.204;10.652;2024-02-21T04:17:31;10.10;;;4.73;;
14394;SDS011;7282;49.204;10.652;2024-02-21T04:20:05;9.67;;;5.67;;
14394;SDS011;7282;49.204;10.652;2024-02-21T04:22:31;11.63;;;5.50;;
14394;SDS011;7282;49.204;10.652;2024-02-21T04:25:00;10.83;;;6.20;;
14394;SDS011;7282;49.204;10.652;2024-02-21T04:27:27;14.97;;;6.70;;
14394;SDS011;7282;49.204;10.652;2024-02-21T04:29:53;12.80;;;7.60;;
14394;SDS011;7282;49.204;10.652;2024-02-21T04:32:20;14.70;;;7.47;;
14394;SDS011;7282;49.204;10.652;2024-02-21T04:34:47;14.30;;;7.37;;
14394;SDS011;7282;49.204;10.652;2024-02-21T04:37:14;14.43;;;6.60;;
14394;SDS011;7282;49.204;10.652;2024-02-21T04:39:40;12.93;;;6.57;;
14394;SDS011;7282;49.204;10.652;2024-02-21T04:42:07;14.50;;;6.77;;
14394;SDS011;7282;49.204;10.652;2024-02-21T04:44:34;13.33;;;7.03;;
14394;SDS011;7282;49.204;10.652;2024-02-21T04:47:00;15.50;;;7.37;;
14394;SDS011;7282;49.204;10.652;2024-02-21T04:49:27;13.00;;;7.00;;
14394;SDS011;7282;49.204;10.652;2024-02-21T04:51:54;12.50;;;6.73;;
14394;SDS011;7282;49.204;10.652;2024-02-21T04:54:20;13.53;;;7.13;;
14394;SDS011;7282;49.204;10.652;2024-02-21T04:56:47;12.83;;;6.13;;
14394;SDS011;7282;49.204;10.652;2024-02-21T04:59:14;9.47;;;5.20;;
14394;SDS011;7282;49.204;10.652;2024-02-21T05:01:40;11.40;;;6.47;;
14394;SDS011;7282;49.204;10.652;2024-02-21T05:04:07;13.30;;;6.60;;
14394;SDS011;7282;49.204;10.652;2024-02-21T05:06:41;14.20;;;6.40;;
14394;SDS011;7282;49.204;10.652;2024-02-21T05:09:05;10.57;;;6.30;;
14394;SDS011;7282;49.204;10.652;2024-02-21T05:11:32;14.40;;;6.70;;
14394;SDS011;7282;49.204;10.652;2024-02-21T05:13:59;11.10;;;5.90;;
14394;SDS011;7282;49.204;10.652;2024-02-21T05:16:25;13.57;;;6.50;;
14394;SDS011;7282;49.204;10.652;2024-02-21T05:18:52;14.27;;;7.50;;
14394;SDS011;7282;49.204;10.652;2024-02-21T05:21:19;13.43;;;6.57;;
14394;SDS011;7282;49.204;10.652;2024-02-21T05:23:45;13.13;;;7.63;;
14394;SDS011;7282;49.204;10.652;2024-02-21T05:26:19;12.90;;;6.77;;
14394;SDS011;7282;49.204;10.652;2024-02-21T05:28:41;13.53;;;6.13;;
14394;SDS011;7282;49.204;10.652;2024-02-21T05:31:07;14.83;;;6.87;;
14394;SDS011;7282;49.204;10.652;2024-02-21T05:33:34;16.07;;;7.07;;
14394;SDS011;7282;49.204;10.652;2024-02-21T05:36:01;14.47;;;6.77;;
14394;SDS011;7282;49.204;10.652;2024-02-21T05:38:28;11.40;;;6.47;;
14394;SDS011;7282;49.204;10.652;2024-02-21T05:40:55;12.57;;;6.63;;
14394;SDS011;7282;49.204;10.652;2024-02-21T05:43:22;10.70;;;6.53;;
14394;SDS011;7282;49.204;10.652;2024-02-21T05:45:49;10.73;;;6.20;;
14394;SDS011;7282;49.204;10.652;2024-02-21T05:48:16;15.37;;;6.30;;
14394;SDS011;7282;49.204;10.652;2024-02-21T05:50:42;12.17;;;6.80;;
14394;SDS011;7282;49.204;10.652;2024-02-21T05:53:09;14.53;;;6.83;;
14394;SDS011;7282;49.204;10.652;2024-02-21T05:55:37;15.23;;;7.93;;
14394;SDS011;7282;49.204;10.652;2024-02-21T05:58:03;12.47;;;7.23;;
14394;SDS011;7282;49.204;10.652;2024-02-21T06:00:32;15.83;;;7.70;;
14394;SDS011;7282;49.204;10.652;2024-02-21T06:02:58;12.80;;;7.20;;
14394;SDS011;7282;49.204;10.652;2024-02-21T06:05:25;11.33;;;7.73;;
14394;SDS011;7282;49.204;10.652;2024-02-21T06:07:52;9.03;;;6.20;;
14394;SDS011;7282;49.204;10.652;2024-02-21T06:10:18;12.00;;;6.30;;
14394;SDS011;7282;49.204;10.652;2024-02-21T06:12:45;13.43;;;6.43;;
14394;SDS011;7282;49.204;10.652;2024-02-21T06:15:12;13.87;;;7.33;;
14394;SDS011;7282;49.204;10.652;2024-02-21T06:17:39;14.07;;;8.83;;
14394;SDS011;7282;49.204;10.652;2024-02-21T06:20:05;12.37;;;7.57;;
14394;SDS011;7282;49.204;10.652;2024-02-21T06:22:32;9.07;;;6.60;;
14394;SDS011;7282;49.204;10.652;2024-02-21T06:24:59;12.53;;;6.53;;
14394;SDS011;7282;49.204;10.652;2024-02-21T06:27:26;14.10;;;7.10;;
14394;SDS011;7282;49.204;10.652;2024-02-21T06:29:52;15.80;;;6.80;;
14394;SDS011;7282;49.204;10.652;2024-02-21T06:32:19;12.27;;;6.20;;
14394;SDS011;7282;49.204;10.652;2024-02-21T06:34:46;13.37;;;6.27;;
14394;SDS011;7282;49.204;10.652;2024-02-21T06:37:12;13.57;;;7.10;;
14394;SDS011;7282;49.204;10.652;2024-02-21T06:39:39;11.23;;;6.50;;
14394;SDS011;7282;49.204;10.652;2024-02-21T06:42:06;12.90;;;7.50;;
14394;SDS011;7282;49.204;10.652;2024-02-21T06:44:33;13.90;;;6.73;;
14394;SDS011;7282;49.204;10.652;2024-02-21T06:47:02;13.97;;;7.30;;
14394;SDS011;7282;49.204;10.652;2024-02-21T06:49:29;10.47;;;6.93;;
14394;SDS011;7282;49.204;10.652;2024-02-21T06:51:55;11.97;;;6.90;;
14394;SDS011;7282;49.204;10.652;2024-02-21T06:54:22;14.77;;;7.57;;
14394;SDS011;7282;49.204;10.652;2024-02-21T06:56:49;10.40;;;7.27;;
14394;SDS011;7282;49.204;10.652;2024-02-21T06:59:16;12.43;;;7.80;;
14394;SDS011;7282;49.204;10.652;2024-02-21T07:01:48;11.70;;;8.33;;
14394;SDS011;7282;49.204;10.652;2024-02-21T07:04:12;18.40;;;9.30;;
14394;SDS011;7282;49.204;10.652;2024-02-21T07:06:38;13.27;;;8.17;;
14394;SDS011;7282;49.204;10.652;2024-02-21T07:09:05;13.03;;;7.73;;
14394;SDS011;7282;49.204;10.652;2024-02-21T07:11:32;11.70;;;6.50;;
14394;SDS011;7282;49.204;10.652;2024-02-21T07:13:59;9.93;;;6.33;;
14394;SDS011;7282;49.204;10.652;2024-02-21T07:16:25;14.30;;;7.07;;
14394;SDS011;7282;49.204;10.652;2024-02-21T07:18:52;13.07;;;6.37;;
14394;SDS011;7282;49.204;10.652;2024-02-21T07:21:19;13.30;;;6.57;;
14394;SDS011;7282;49.204;10.652;2024-02-21T07:23:46;11.87;;;6.30;;
14394;SDS011;7282;49.204;10.652;2024-02-21T07:26:12;12.60;;;6.70;;
14394;SDS011;7282;49.204;10.652;2024-02-21T07:28:39;14.30;;;7.07;;
14394;SDS011;7282;49.204;10.652;2024-02-21T07:31:06;10.67;;;6.60;;
14394;SDS011;7282;49.204;10.652;2024-02-21T07:33:32;11.17;;;7.23;;
14394;SDS011;7282;49.204;10.652;2024-02-21T07:36:05;10.97;;;6.33;;
14394;SDS011;7282;49.204;10.652;2024-02-21T07:38:30;12.97;;;6.60;;
14394;SDS011;7282;49.204;10.652;2024-02-21T07:40:56;11.17;;;6.40;;
14394;SDS011;7282;49.204;10.652;2024-02-21T07:43:23;8.43;;;5.90;;
14394;SDS011;7282;49.204;10.652;2024-02-21T07:45:50;8.97;;;5.73;;
14394;SDS011;7282;49.204;10.652;2024-02-21T07:48:16;10.90;;;6.07;;
14394;SDS011;7282;49.204;10.652;2024-02-21T07:50:44;8.33;;;5.13;;
14394;SDS011;7282;49.204;10.652;2024-02-21T07:53:11;14.27;;;5.93;;
14394;SDS011;7282;49.204;10.652;2024-02-21T07:55:38;12.80;;;6.07;;
14394;SDS011;7282;49.204;10.652;2024-02-21T07:58:04;8.50;;;5.00;;
14394;SDS011;7282;49.204;10.652;2024-02-21T08:00:31;12.97;;;5.97;;
14394;SDS011;7282;49.204;10.652;2024-02-21T08:02:58;13.93;;;5.97;;
14394;SDS011;7282;49.204;10.652;2024-02-21T08:05:24;12.33;;;5.53;;
14394;SDS011;7282;49.204;10.652;2024-02-21T08:07:51;12.40;;;6.13;;
14394;SDS011;7282;49.204;10.652;2024-02-21T08:10:18;11.53;;;5.40;;
14394;SDS011;7282;49.204;10.652;2024-02-21T08:12:45;11.90;;;6.20;;
14394;SDS011;7282;49.204;10.652;2024-02-21T08:15:11;10.73;;;5.83;;
14394;SDS011;7282;49.204;10.652;2024-02-21T08:17:38;11.57;;;5.20;;
14394;SDS011;7282;49.204;10.652;2024-02-21T08:20:05;13.60;;;5.87;;
14394;SDS011;7282;49.204;10.652;2024-02-21T08:22:32;9.87;;;5.87;;
14394;SDS011;7282;49.204;10.652;2024-02-21T08:24:58;11.37;;;5.50;;
14394;SDS011;7282;49.204;10.652;2024-02-21T08:27:25;10.87;;;5.63;;
14394;SDS011;7282;49.204;10.652;2024-02-21T08:29:52;9.43;;;5.30;;
14394;SDS011;7282;49.204;10.652;2024-02-21T08:32:18;15.60;;;6.40;;
14394;SDS011;7282;49.204;10.652;2024-02-21T08:34:45;12.30;;;5.37;;
14394;SDS011;7282;49.204;10.652;2024-02-21T08:37:12;8.93;;;5.10;;
14394;SDS011;7282;49.204;10.652;2024-02-21T08:39:39;8.17;;;5.33;;
14394;SDS011;7282;49.204;10.652;2024-02-21T08:42:06;10.17;;;5.23;;
14394;SDS011;7282;49.204;10.652;2024-02-21T08:44:33;9.67;;;5.10;;
14394;SDS011;7282;49.204;10.652;2024-02-21T08:46:59;8.80;;;4.77;;
14394;SDS011;7282;49.204;10.652;2024-02-21T08:49:28;12.00;;;5.50;;
14394;SDS011;7282;49.204;10.652;2024-02-21T08:51:55;9.83;;;5.07;;
14394;SDS011;7282;49.204;10.652;2024-02-21T08:54:21;7.03;;;4.73;;
14394;SDS011;7282;49.204;10.652;2024-02-21T08:56:48;9.73;;;4.40;;
14394;SDS011;7282;49.204;10.652;2024-02-21T08:59:15;9.50;;;4.40;;
14394;SDS011;7282;49.204;10.652;2024-02-21T09:01:41;9.33;;;4.90;;
14394;SDS011;7282;49.204;10.652;2024-02-21T09:04:09;6.43;;;4.37;;
14394;SDS011;7282;49.204;10.652;2024-02-21T09:06:36;7.87;;;4.20;;
14394;SDS011;7282;49.204;10.652;2024-02-21T09:09:04;7.23;;;4.47;;
14394;SDS011;7282;49.204;10.652;2024-02-21T09:11:31;7.43;;;4.33;;
14394;SDS011;7282;49.204;10.652;2024-02-21T09:13:58;8.43;;;3.90;;
14394;SDS011;7282;49.204;10.652;2024-02-21T09:16:24;9.20;;;4.17;;
14394;SDS011;7282;49.204;10.652;2024-02-21T09:18:51;8.57;;;4.03;;
14394;SDS011;7282;49.204;10.652;2024-02-21T09:21:18;13.77;;;7.63;;
14394;SDS011;7282;49.204;10.652;2024-02-21T09:23:45;7.20;;;3.83;;
14394;SDS011;7282;49.204;10.652;2024-02-21T09:26:12;10.67;;;3.90;;
14394;SDS011;7282;49.204;10.652;2024-02-21T09:28:40;8.50;;;3.73;;
14394;SDS011;7282;49.204;10.652;2024-02-21T09:31:07;7.30;;;3.90;;
14394;SDS011;7282;49.204;10.652;2024-02-21T09:33:34;11.23;;;4.27;;
14394;SDS011;7282;49.204;10.652;2024-02-21T09:36:01;9.67;;;3.90;;
14394;SDS011;7282;49.204;10.652;2024-02-21T09:38:27;8.53;;;3.60;;
14394;SDS011;7282;49.204;10.652;2024-02-21T09:40:59;10.90;;;3.83;;
14394;SDS011;7282;49.204;10.652;2024-02-21T09:43:22;6.13;;;3.20;;
14394;SDS011;7282;49.204;10.652;2024-02-21T09:45:49;7.07;;;3.40;;
14394;SDS011;7282;49.204;10.652;2024-02-21T09:48:23;12.23;;;4.23;;
14394;SDS011;7282;49.204;10.652;2024-02-21T09:50:47;7.30;;;3.50;;
14394;SDS011;7282;49.204;10.652;2024-02-21T09:53:16;9.07;;;3.87;;
14394;SDS011;7282;49.204;10.652;2024-02-21T09:55:43;9.70;;;3.53;;
14394;SDS011;7282;49.204;10.652;2024-02-21T09:58:10;12.17;;;3.37;;
14394;SDS011;7282;49.204;10.652;2024-02-21T10:00:36;6.23;;;3.37;;
14394;SDS011;7282;49.204;10.652;2024-02-21T10:03:03;5.40;;;3.30;;
14394;SDS011;7282;49.204;10.652;2024-02-21T10:05:36;8.30;;;2.80;;
14394;SDS011;7282;49.204;10.652;2024-02-21T10:08:03;6.70;;;3.03;;
14394;SDS011;7282;49.204;10.652;2024-02-21T10:10:40;5.97;;;2.90;;
14394;SDS011;7282;49.204;10.652;2024-02-21T10:12:58;9.60;;;3.30;;
14394;SDS011;7282;49.204;10.652;2024-02-21T10:15:25;8.67;;;2.83;;
14394;SDS011;7282;49.204;10.652;2024-02-21T10:17:58;6.37;;;2.77;;
14394;SDS011;7282;49.204;10.652;2024-02-21T10:20:30;6.77;;;3.10;;
14394;SDS011;7282;49.204;10.652;2024-02-21T10:23:03;8.40;;;3.00;;
14394;SDS011;7282;49.204;10.652;2024-02-21T10:25:31;8.37;;;3.10;;
14394;SDS011;7282;49.204;10.652;2024-02-21T10:27:58;5.00;;;2.80;;
14394;SDS011;7282;49.204;10.652;2024-02-21T10:30:25;6.37;;;2.70;;
14394;SDS011;7282;49.204;10.652;2024-02-21T10:32:54;7.77;;;3.20;;
14394;SDS011;7282;49.204;10.652;2024-02-21T10:35:27;8.27;;;2.87;;
14394;SDS011;7282;49.204;10.652;2024-02-21T10:37:55;5.93;;;2.63;;
14394;SDS011;7282;49.204;10.652;2024-02-21T10:40:26;10.20;;;3.10;;
14394;SDS011;7282;49.204;10.652;2024-02-21T10:42:56;9.13;;;3.37;;
14394;SDS011;7282;49.204;10.652;2024-02-21T10:45:22;5.33;;;3.00;;
14394;SDS011;7282;49.204;10.652;2024-02-21T10:47:50;7.30;;;2.77;;
14394;SDS011;7282;49.204;10.652;2024-02-21T10:50:18;7.00;;;3.47;;
14394;SDS011;7282;49.204;10.652;2024-02-21T10:52:48;5.90;;;2.63;;
14394;SDS011;7282;49.204;10.652;2024-02-21T10:55:20;6.03;;;2.97;;
14394;SDS011;7282;49.204;10.652;2024-02-21T10:57:43;7.27;;;2.80;;
14394;SDS011;7282;49.204;10.652;2024-02-21T11:00:10;4.73;;;2.53;;
14394;SDS011;7282;49.204;10.652;2024-02-21T11:02:38;5.70;;;2.73;;
14394;SDS011;7282;49.204;10.652;2024-02-21T11:05:05;4.43;;;2.30;;
14394;SDS011;7282;49.204;10.652;2024-02-21T11:07:33;6.77;;;2.80;;
14394;SDS011;7282;49.204;10.652;2024-02-21T11:10:01;5.60;;;3.20;;
14394;SDS011;7282;49.204;10.652;2024-02-21T11:12:32;5.03;;;2.67;;
14394;SDS011;7282;49.204;10.652;2024-02-21T11:15:05;5.80;;;2.90;;
14394;SDS011;7282;49.204;10.652;2024-02-21T11:17:32;4.80;;;2.37;;
14394;SDS011;7282;49.204;10.652;2024-02-21T11:19:58;7.47;;;2.83;;
14394;SDS011;7282;49.204;10.652;2024-02-21T11:22:27;6.53;;;2.93;;
14394;SDS011;7282;49.204;10.652;2024-02-21T11:25:05;5.83;;;2.73;;
14394;SDS011;7282;49.204;10.652;2024-02-21T11:27:24;7.37;;;2.63;;
14394;SDS011;7282;49.204;10.652;2024-02-21T11:29:54;5.47;;;2.40;;
14394;SDS011;7282;49.204;10.652;2024-02-21T11:32:22;5.67;;;2.40;;
14394;SDS011;7282;49.204;10.652;2024-02-21T11:34:58;5.60;;;2.80;;
14394;SDS011;7282;49.204;10.652;2024-02-21T11:37:30;5.40;;;2.70;;
14394;SDS011;7282;49.204;10.652;2024-02-21T11:39:59;8.23;;;2.77;;
14394;SDS011;7282;49.204;10.652;2024-02-21T11:42:26;4.87;;;2.60;;
14394;SDS011;7282;49.204;10.652;2024-02-21T11:44:53;5.87;;;2.70;;
14394;SDS011;7282;49.204;10.652;2024-02-21T11:47:22;8.40;;;2.80;;
14394;SDS011;7282;49.204;10.652;2024-02-21T11:49:49;6.77;;;2.87;;
14394;SDS011;7282;49.204;10.652;2024-02-21T11:52:17;9.53;;;3.13;;
14394;SDS011;7282;49.204;10.652;2024-02-21T11:54:46;5.77;;;2.60;;
14394;SDS011;7282;49.204;10.652;2024-02-21T11:57:13;5.80;;;2.40;;
14394;SDS011;7282;49.204;10.652;2024-02-21T11:59:40;3.40;;;2.37;;
14394;SDS011;7282;49.204;10.652;2024-02-21T12:02:07;5.90;;;2.60;;
14394;SDS011;7282;49.204;10.652;2024-02-21T12:04:34;4.90;;;2.10;;
14394;SDS011;7282;49.204;10.652;2024-02-21T12:07:01;4.10;;;2.27;;
14394;SDS011;7282;49.204;10.652;2024-02-21T12:09:30;3.27;;;2.43;;
14394;SDS011;7282;49.204;10.652;2024-02-21T12:12:01;3.03;;;2.17;;
14394;SDS011;7282;49.204;10.652;2024-02-21T12:14:25;6.90;;;2.50;;
14394;SDS011;7282;49.204;10.652;2024-02-21T12:16:52;4.57;;;2.23;;
14394;SDS011;7282;49.204;10.652;2024-02-21T12:19:19;6.07;;;2.53;;
14394;SDS011;7282;49.204;10.652;2024-02-21T12:21:47;6.17;;;2.53;;
14394;SDS011;7282;49.204;10.652;2024-02-21T12:24:16;3.50;;;2.20;;
14394;SDS011;7282;49.204;10.652;2024-02-21T12:26:43;5.27;;;2.10;;
14394;SDS011;7282;49.204;10.652;2024-02-21T12:29:10;4.70;;;2.30;;
14394;SDS011;7282;49.204;10.652;2024-02-21T12:31:37;6.93;;;2.47;;
14394;SDS011;7282;49.204;10.652;2024-02-21T12:34:04;6.37;;;2.33;;
14394;SDS011;7282;49.204;10.652;2024-02-21T12:36:31;8.70;;;2.57;;
14394;SDS011;7282;49.204;10.652;2024-02-21T12:39:03;7.80;;;2.13;;
14394;SDS011;7282;49.204;10.652;2024-02-21T12:41:28;7.00;;;2.60;;
14394;SDS011;7282;49.204;10.652;2024-02-21T12:43:56;3.03;;;2.00;;
14394;SDS011;7282;49.204;10.652;2024-02-21T12:46:22;2.77;;;1.83;;
14394;SDS011;7282;49.204;10.652;2024-02-21T12:48:50;4.13;;;2.50;;
14394;SDS011;7282;49.204;10.652;2024-02-21T12:51:17;5.33;;;1.70;;
14394;SDS011;7282;49.204;10.652;2024-02-21T12:53:45;5.63;;;2.50;;
14394;SDS011;7282;49.204;10.652;2024-02-21T12:56:12;5.53;;;2.07;;
14394;SDS011;7282;49.204;10.652;2024-02-21T12:58:39;4.73;;;2.07;;
14394;SDS011;7282;49.204;10.652;2024-02-21T13:01:05;6.40;;;2.03;;
14394;SDS011;7282;49.204;10.652;2024-02-21T13:03:34;2.73;;;1.90;;
14394;SDS011;7282;49.204;10.652;2024-02-21T13:06:01;2.70;;;1.73;;
14394;SDS011;7282;49.204;10.652;2024-02-21T13:08:27;7.10;;;2.23;;
14394;SDS011;7282;49.204;10.652;2024-02-21T13:10:54;3.40;;;1.77;;
14394;SDS011;7282;49.204;10.652;2024-02-21T13:13:21;4.90;;;2.00;;
14394;SDS011;7282;49.204;10.652;2024-02-21T13:15:47;10.57;;;3.03;;
14394;SDS011;7282;49.204;10.652;2024-02-21T13:18:14;3.23;;;1.77;;
14394;SDS011;7282;49.204;10.652;2024-02-21T13:20:41;6.13;;;2.60;;
14394;SDS011;7282;49.204;10.652;2024-02-21T13:23:07;3.77;;;1.80;;
14394;SDS011;7282;49.204;10.652;2024-02-21T13:25:34;3.13;;;1.87;;
14394;SDS011;7282;49.204;10.652;2024-02-21T13:28:01;4.67;;;1.90;;
14394;SDS011;7282;49.204;10.652;2024-02-21T13:30:29;5.67;;;2.10;;
14394;SDS011;7282;49.204;10.652;2024-02-21T13:32:55;4.20;;;2.00;;
14394;SDS011;7282;49.204;10.652;2024-02-21T13:35:22;3.43;;;1.97;;
14394;SDS011;7282;49.204;10.652;2024-02-21T13:37:49;3.27;;;2.10;;
14394;SDS011;7282;49.204;10.652;2024-02-21T13:40:16;6.73;;;2.33;;
14394;SDS011;7282;49.204;10.652;2024-02-21T13:42:43;3.47;;;2.30;;
14394;SDS011;7282;49.204;10.652;2024-02-21T13:45:09;4.53;;;2.13;;
14394;SDS011;7282;49.204;10.652;2024-02-21T13:47:36;4.43;;;2.07;;
14394;SDS011;7282;49.204;10.652;2024-02-21T13:50:05;5.27;;;2.40;;
14394;SDS011;7282;49.204;10.652;2024-02-21T13:52:33;4.77;;;2.30;;
14394;SDS011;7282;49.204;10.652;2024-02-21T13:55:00;6.77;;;2.27;;
14394;SDS011;7282;49.204;10.652;2024-02-21T13:57:27;6.50;;;2.23;;
14394;SDS011;7282;49.204;10.652;2024-02-21T13:59:54;5.47;;;2.60;;
14394;SDS011;7282;49.204;10.652;2024-02-21T14:02:20;7.23;;;2.80;;
14394;SDS011;7282;49.204;10.652;2024-02-21T14:04:47;7.07;;;2.83;;
14394;SDS011;7282;49.204;10.652;2024-02-21T14:07:14;6.77;;;3.00;;
14394;SDS011;7282;49.204;10.652;2024-02-21T14:09:40;5.77;;;3.03;;
14394;SDS011;7282;49.204;10.652;2024-02-21T14:12:07;3.50;;;2.50;;
14394;SDS011;7282;49.204;10.652;2024-02-21T14:14:37;8.17;;;2.83;;
14394;SDS011;7282;49.204;10.652;2024-02-21T14:17:03;5.57;;;3.10;;
14394;SDS011;7282;49.204;10.652;2024-02-21T14:19:30;5.97;;;3.27;;
14394;SDS011;7282;49.204;10.652;2024-02-21T14:21:57;5.83;;;2.70;;
14394;SDS011;7282;49.204;10.652;2024-02-21T14:24:24;4.47;;;3.10;;
14394;SDS011;7282;49.204;10.652;2024-02-21T14:26:51;6.97;;;3.50;;
14394;SDS011;7282;49.204;10.652;2024-02-21T14:29:18;5.90;;;3.40;;
14394;SDS011;7282;49.204;10.652;2024-02-21T14:31:44;8.57;;;3.57;;
14394;SDS011;7282;49.204;10.652;2024-02-21T14:34:11;9.00;;;3.80;;
14394;SDS011;7282;49.204;10.652;2024-02-21T14:36:38;6.93;;;3.53;;
14394;SDS011;7282;49.204;10.652;2024-02-21T14:39:04;7.67;;;3.53;;